sensor_id;sensor_type;location;lat;lon;timestamp;pressure;altitude;pressure_sealevel;temperature
19948;BMP180;10135;50.702;7.276;2022-10-19T05:32:11;100508.00;;;13.50
19948;BMP180;10135;50.702;7.276;2022-10-19T05:34:12;100504.00;;;13.40
19948;BMP180;10135;50.702;7.276;2022-10-19T05:36:24;100508.00;;;13.40
19948;BMP180;10135;50.702;7.276;2022-10-19T05:38:25;100505.00;;;13.40
19948;BMP180;10135;50.702;7.276;2022-10-19T05:40:26;100504.00;;;13.40
19948;BMP180;10135;50.702;7.276;2022-10-19T05:42:27;100509.00;;;13.40
19948;BMP180;10135;50.702;7.276;2022-10-19T05:44:27;100500.00;;;13.40
19948;BMP180;10135;50.702;7.276;2022-10-19T05:46:30;100503.00;;;13.40
19948;BMP180;10135;50.702;7.276;2022-10-19T05:48:31;100501.00;;;13.40
19948;BMP180;10135;50.702;7.276;2022-10-19T05:50:33;100500.00;;;13.40
19948;BMP180;10135;50.702;7.276;2022-10-19T05:52:33;100504.00;;;13.40
19948;BMP180;10135;50.702;7.276;2022-10-19T05:54:36;100496.00;;;13.40
19948;BMP180;10135;50.702;7.276;2022-10-19T05:56:38;100498.00;;;13.40
19948;BMP180;10135;50.702;7.276;2022-10-19T05:58:39;100513.00;;;13.40
19948;BMP180;10135;50.702;7.276;2022-10-19T06:00:40;100505.00;;;13.40
19948;BMP180;10135;50.702;7.276;2022-10-19T06:02:40;100507.00;;;13.40
19948;BMP180;10135;50.702;7.276;2022-10-19T06:04:41;100516.00;;;13.40
19948;BMP180;10135;50.702;7.276;2022-10-19T06:06:42;100504.00;;;13.40
19948;BMP180;10135;50.702;7.276;2022-10-19T06:08:43;100504.00;;;13.40
19948;BMP180;10135;50.702;7.276;2022-10-19T06:10:44;100496.00;;;13.30
19948;BMP180;10135;50.702;7.276;2022-10-19T06:12:46;100495.00;;;13.40
19948;BMP180;10135;50.702;7.276;2022-10-19T06:14:49;100499.00;;;13.30
19948;BMP180;10135;50.702;7.276;2022-10-19T06:16:50;100490.00;;;13.40
19948;BMP180;10135;50.702;7.276;2022-10-19T06:18:53;100490.00;;;13.40
19948;BMP180;10135;50.702;7.276;2022-10-19T06:20:53;100496.00;;;13.40
19948;BMP180;10135;50.702;7.276;2022-10-19T06:22:54;100497.00;;;13.40
19948;BMP180;10135;50.702;7.276;2022-10-19T06:24:55;100501.00;;;13.40
19948;BMP180;10135;50.702;7.276;2022-10-19T06:26:56;100506.00;;;13.40
19948;BMP180;10135;50.702;7.276;2022-10-19T06:28:58;100504.00;;;13.40
19948;BMP180;10135;50.702;7.276;2022-10-19T06:31:00;100509.00;;;13.40
19948;BMP180;10135;50.702;7.276;2022-10-19T06:33:00;100509.00;;;13.40
19948;BMP180;10135;50.702;7.276;2022-10-19T06:35:01;100515.00;;;13.40
19948;BMP180;10135;50.702;7.276;2022-10-19T06:37:01;100519.00;;;13.40
19948;BMP180;10135;50.702;7.276;2022-10-19T06:39:02;100513.00;;;13.30
19948;BMP180;10135;50.702;7.276;2022-10-19T06:41:03;100520.00;;;13.30
19948;BMP180;10135;50.702;7.276;2022-10-19T06:43:04;100527.00;;;13.30
19948;BMP180;10135;50.702;7.276;2022-10-19T06:45:09;100525.00;;;13.20
19948;BMP180;10135;50.702;7.276;2022-10-19T06:47:10;100524.00;;;13.30
19948;BMP180;10135;50.702;7.276;2022-10-19T06:49:12;100526.00;;;13.30
19948;BMP180;10135;50.702;7.276;2022-10-19T06:51:13;100527.00;;;13.20
19948;BMP180;10135;50.702;7.276;2022-10-19T06:53:13;100532.00;;;13.30
19948;BMP180;10135;50.702;7.276;2022-10-19T06:55:14;100535.00;;;13.30
19948;BMP180;10135;50.702;7.276;2022-10-19T06:57:17;100532.00;;;13.30
19948;BMP180;10135;50.702;7.276;2022-10-19T06:59:17;100530.00;;;13.30
19948;BMP180;10135;50.702;7.276;2022-10-19T07:01:19;100531.00;;;13.30
19948;BMP180;10135;50.702;7.276;2022-10-19T07:03:20;100533.00;;;13.30
19948;BMP180;10135;50.702;7.276;2022-10-19T07:05:21;100529.00;;;13.30
19948;BMP180;10135;50.702;7.276;2022-10-19T07:07:21;100531.00;;;13.30
19948;BMP180;10135;50.702;7.276;2022-10-19T07:09:22;100529.00;;;13.30
19948;BMP180;10135;50.702;7.276;2022-10-19T07:11:23;100532.00;;;13.30
19948;BMP180;10135;50.702;7.276;2022-10-19T07:13:24;100535.00;;;13.30
19948;BMP180;10135;50.702;7.276;2022-10-19T07:15:25;100531.00;;;13.30
19948;BMP180;10135;50.702;7.276;2022-10-19T07:17:26;100537.00;;;13.30
19948;BMP180;10135;50.702;7.276;2022-10-19T07:19:26;100534.00;;;13.40
19948;BMP180;10135;50.702;7.276;2022-10-19T07:21:27;100531.00;;;13.40
19948;BMP180;10135;50.702;7.276;2022-10-19T07:23:30;100530.00;;;13.40
19948;BMP180;10135;50.702;7.276;2022-10-19T07:25:31;100528.00;;;13.40
19948;BMP180;10135;50.702;7.276;2022-10-19T07:27:33;100528.00;;;13.40
19948;BMP180;10135;50.702;7.276;2022-10-19T07:29:36;100525.00;;;13.50
19948;BMP180;10135;50.702;7.276;2022-10-19T07:31:37;100528.00;;;13.50
19948;BMP180;10135;50.702;7.276;2022-10-19T07:33:37;100534.00;;;13.50
19948;BMP180;10135;50.702;7.276;2022-10-19T07:35:38;100531.00;;;13.50
19948;BMP180;10135;50.702;7.276;2022-10-19T07:37:39;100540.00;;;13.50
19948;BMP180;10135;50.702;7.276;2022-10-19T07:39:39;100535.00;;;13.50
19948;BMP180;10135;50.702;7.276;2022-10-19T07:41:40;100533.00;;;13.50
19948;BMP180;10135;50.702;7.276;2022-10-19T07:43:43;100536.00;;;13.50
19948;BMP180;10135;50.702;7.276;2022-10-19T07:45:44;100533.00;;;13.50
19948;BMP180;10135;50.702;7.276;2022-10-19T07:47:44;100531.00;;;13.50
19948;BMP180;10135;50.702;7.276;2022-10-19T07:49:45;100530.00;;;13.60
19948;BMP180;10135;50.702;7.276;2022-10-19T07:51:46;100523.00;;;13.60
19948;BMP180;10135;50.702;7.276;2022-10-19T07:53:47;100521.00;;;13.60
19948;BMP180;10135;50.702;7.276;2022-10-19T07:55:48;100527.00;;;13.70
19948;BMP180;10135;50.702;7.276;2022-10-19T07:57:49;100523.00;;;13.70
19948;BMP180;10135;50.702;7.276;2022-10-19T07:59:49;100524.00;;;13.70
19948;BMP180;10135;50.702;7.276;2022-10-19T08:01:50;100527.00;;;13.70
19948;BMP180;10135;50.702;7.276;2022-10-19T08:03:54;100524.00;;;13.70
19948;BMP180;10135;50.702;7.276;2022-10-19T08:06:07;100524.00;;;13.70
19948;BMP180;10135;50.702;7.276;2022-10-19T08:08:08;100527.00;;;13.80
19948;BMP180;10135;50.702;7.276;2022-10-19T08:10:09;100531.00;;;13.80
19948;BMP180;10135;50.702;7.276;2022-10-19T08:12:09;100530.00;;;13.90
19948;BMP180;10135;50.702;7.276;2022-10-19T08:14:10;100539.00;;;13.90
19948;BMP180;10135;50.702;7.276;2022-10-19T08:16:28;100539.00;;;13.90
19948;BMP180;10135;50.702;7.276;2022-10-19T08:18:32;100538.00;;;14.00
19948;BMP180;10135;50.702;7.276;2022-10-19T08:20:32;100534.00;;;14.00
19948;BMP180;10135;50.702;7.276;2022-10-19T08:22:33;100534.00;;;14.00
19948;BMP180;10135;50.702;7.276;2022-10-19T08:24:34;100536.00;;;14.10
19948;BMP180;10135;50.702;7.276;2022-10-19T08:26:37;100536.00;;;14.10
19948;BMP180;10135;50.702;7.276;2022-10-19T08:28:38;100526.00;;;14.10
19948;BMP180;10135;50.702;7.276;2022-10-19T08:30:39;100525.00;;;14.20
19948;BMP180;10135;50.702;7.276;2022-10-19T08:32:39;100528.00;;;14.20
19948;BMP180;10135;50.702;7.276;2022-10-19T08:34:40;100525.00;;;14.20
19948;BMP180;10135;50.702;7.276;2022-10-19T08:36:41;100526.00;;;14.20
19948;BMP180;10135;50.702;7.276;2022-10-19T08:38:42;100517.00;;;14.30
19948;BMP180;10135;50.702;7.276;2022-10-19T08:40:44;100517.00;;;14.30
19948;BMP180;10135;50.702;7.276;2022-10-19T08:43:21;100518.00;;;14.30
19948;BMP180;10135;50.702;7.276;2022-10-19T08:45:59;100513.00;;;14.30
19948;BMP180;10135;50.702;7.276;2022-10-19T08:50:35;100510.00;;;14.40
19948;BMP180;10135;50.702;7.276;2022-10-19T08:52:37;100501.00;;;14.50
19948;BMP180;10135;50.702;7.276;2022-10-19T08:54:52;100503.00;;;14.50
19948;BMP180;10135;50.702;7.276;2022-10-19T08:57:24;100496.00;;;14.50
19948;BMP180;10135;50.702;7.276;2022-10-19T08:59:44;100485.00;;;14.60
19948;BMP180;10135;50.702;7.276;2022-10-19T09:04:12;100486.00;;;14.80
19948;BMP180;10135;50.702;7.276;2022-10-19T09:08:54;100478.00;;;15.00
19948;BMP180;10135;50.702;7.276;2022-10-19T09:10:55;100488.00;;;15.00
19948;BMP180;10135;50.702;7.276;2022-10-19T09:13:02;100476.00;;;15.10
19948;BMP180;10135;50.702;7.276;2022-10-19T09:15:16;100476.00;;;15.20
19948;BMP180;10135;50.702;7.276;2022-10-19T09:17:19;100476.00;;;15.30
19948;BMP180;10135;50.702;7.276;2022-10-19T09:19:24;100479.00;;;15.40
19948;BMP180;10135;50.702;7.276;2022-10-19T09:21:50;100479.00;;;15.60
19948;BMP180;10135;50.702;7.276;2022-10-19T09:24:08;100476.00;;;15.70
19948;BMP180;10135;50.702;7.276;2022-10-19T09:26:18;100476.00;;;15.80
19948;BMP180;10135;50.702;7.276;2022-10-19T09:30:39;100476.00;;;16.00
19948;BMP180;10135;50.702;7.276;2022-10-19T09:32:41;100482.00;;;16.10
19948;BMP180;10135;50.702;7.276;2022-10-19T09:34:48;100480.00;;;16.10
19948;BMP180;10135;50.702;7.276;2022-10-19T09:36:55;100477.00;;;16.20
19948;BMP180;10135;50.702;7.276;2022-10-19T09:38:56;100470.00;;;16.20
19948;BMP180;10135;50.702;7.276;2022-10-19T09:41:06;100469.00;;;16.30
19948;BMP180;10135;50.702;7.276;2022-10-19T09:43:11;100472.00;;;16.40
19948;BMP180;10135;50.702;7.276;2022-10-19T09:47:49;100465.00;;;16.50
19948;BMP180;10135;50.702;7.276;2022-10-19T09:50:05;100458.00;;;16.50
19948;BMP180;10135;50.702;7.276;2022-10-19T09:54:38;100457.00;;;16.70
19948;BMP180;10135;50.702;7.276;2022-10-19T09:56:38;100456.00;;;16.80
19948;BMP180;10135;50.702;7.276;2022-10-19T09:58:57;100463.00;;;16.80
19948;BMP180;10135;50.702;7.276;2022-10-19T10:00:59;100456.00;;;16.90
19948;BMP180;10135;50.702;7.276;2022-10-19T10:03:00;100457.00;;;16.90
19948;BMP180;10135;50.702;7.276;2022-10-19T10:05:13;100454.00;;;17.00
19948;BMP180;10135;50.702;7.276;2022-10-19T10:07:16;100457.00;;;17.10
19948;BMP180;10135;50.702;7.276;2022-10-19T10:09:23;100468.00;;;17.10
19948;BMP180;10135;50.702;7.276;2022-10-19T10:11:39;100470.00;;;17.20
19948;BMP180;10135;50.702;7.276;2022-10-19T10:13:49;100461.00;;;17.20
19948;BMP180;10135;50.702;7.276;2022-10-19T10:15:57;100453.00;;;17.30
19948;BMP180;10135;50.702;7.276;2022-10-19T10:17:59;100449.00;;;17.40
19948;BMP180;10135;50.702;7.276;2022-10-19T10:20:14;100446.00;;;17.40
19948;BMP180;10135;50.702;7.276;2022-10-19T10:22:30;100441.00;;;17.40
19948;BMP180;10135;50.702;7.276;2022-10-19T10:24:33;100439.00;;;17.50
19948;BMP180;10135;50.702;7.276;2022-10-19T10:26:40;100441.00;;;17.50
19948;BMP180;10135;50.702;7.276;2022-10-19T10:28:49;100445.00;;;17.60
19948;BMP180;10135;50.702;7.276;2022-10-19T10:31:09;100452.00;;;17.60
19948;BMP180;10135;50.702;7.276;2022-10-19T10:33:16;100448.00;;;17.70
19948;BMP180;10135;50.702;7.276;2022-10-19T10:35:32;100443.00;;;17.70
19948;BMP180;10135;50.702;7.276;2022-10-19T10:37:42;100443.00;;;17.80
19948;BMP180;10135;50.702;7.276;2022-10-19T10:39:43;100443.00;;;17.90
19948;BMP180;10135;50.702;7.276;2022-10-19T10:41:47;100435.00;;;17.90
19948;BMP180;10135;50.702;7.276;2022-10-19T10:43:59;100430.00;;;17.90
19948;BMP180;10135;50.702;7.276;2022-10-19T10:46:13;100423.00;;;18.00
19948;BMP180;10135;50.702;7.276;2022-10-19T10:48:36;100430.00;;;18.00
19948;BMP180;10135;50.702;7.276;2022-10-19T10:50:38;100432.00;;;18.10
19948;BMP180;10135;50.702;7.276;2022-10-19T10:52:39;100423.00;;;18.20
19948;BMP180;10135;50.702;7.276;2022-10-19T10:54:59;100412.00;;;18.20
19948;BMP180;10135;50.702;7.276;2022-10-19T10:57:14;100409.00;;;18.30
19948;BMP180;10135;50.702;7.276;2022-10-19T10:59:29;100410.00;;;18.30
19948;BMP180;10135;50.702;7.276;2022-10-19T11:01:40;100416.00;;;18.40
19948;BMP180;10135;50.702;7.276;2022-10-19T11:03:49;100412.00;;;18.50
19948;BMP180;10135;50.702;7.276;2022-10-19T11:06:01;100404.00;;;18.60
19948;BMP180;10135;50.702;7.276;2022-10-19T11:10:42;100393.00;;;18.80
19948;BMP180;10135;50.702;7.276;2022-10-19T11:13:13;100396.00;;;18.80
19948;BMP180;10135;50.702;7.276;2022-10-19T11:15:46;100392.00;;;18.90
19948;BMP180;10135;50.702;7.276;2022-10-19T11:18:18;100383.00;;;19.00
19948;BMP180;10135;50.702;7.276;2022-10-19T11:20:26;100378.00;;;19.10
19948;BMP180;10135;50.702;7.276;2022-10-19T11:22:55;100384.00;;;19.10
19948;BMP180;10135;50.702;7.276;2022-10-19T11:27:45;100372.00;;;19.30
19948;BMP180;10135;50.702;7.276;2022-10-19T11:30:21;100369.00;;;19.40
19948;BMP180;10135;50.702;7.276;2022-10-19T11:40:51;100356.00;;;19.60
19948;BMP180;10135;50.702;7.276;2022-10-19T11:43:03;100350.00;;;19.70
19948;BMP180;10135;50.702;7.276;2022-10-19T11:50:12;100340.00;;;19.70
19948;BMP180;10135;50.702;7.276;2022-10-19T11:52:30;100332.00;;;19.70
19948;BMP180;10135;50.702;7.276;2022-10-19T11:54:44;100332.00;;;19.70
19948;BMP180;10135;50.702;7.276;2022-10-19T11:57:02;100334.00;;;19.70
19948;BMP180;10135;50.702;7.276;2022-10-19T12:02:20;100324.00;;;19.80
19948;BMP180;10135;50.702;7.276;2022-10-19T12:10:29;100324.00;;;19.80
19948;BMP180;10135;50.702;7.276;2022-10-19T12:12:25;100318.00;;;19.80
19948;BMP180;10135;50.702;7.276;2022-10-19T12:14:34;100314.00;;;19.90
19948;BMP180;10135;50.702;7.276;2022-10-19T12:16:47;100307.00;;;19.90
19948;BMP180;10135;50.702;7.276;2022-10-19T12:18:54;100302.00;;;20.00
19948;BMP180;10135;50.702;7.276;2022-10-19T12:21:03;100293.00;;;20.00
19948;BMP180;10135;50.702;7.276;2022-10-19T12:23:35;100293.00;;;20.00
19948;BMP180;10135;50.702;7.276;2022-10-19T12:25:42;100288.00;;;20.10
19948;BMP180;10135;50.702;7.276;2022-10-19T12:27:45;100287.00;;;20.10
19948;BMP180;10135;50.702;7.276;2022-10-19T12:29:48;100288.00;;;20.20
19948;BMP180;10135;50.702;7.276;2022-10-19T12:31:51;100285.00;;;20.20
19948;BMP180;10135;50.702;7.276;2022-10-19T12:34:04;100268.00;;;20.20
19948;BMP180;10135;50.702;7.276;2022-10-19T12:36:33;100267.00;;;20.30
19948;BMP180;10135;50.702;7.276;2022-10-19T12:38:55;100264.00;;;20.30
19948;BMP180;10135;50.702;7.276;2022-10-19T12:41:16;100265.00;;;20.30
19948;BMP180;10135;50.702;7.276;2022-10-19T12:43:47;100260.00;;;20.40
19948;BMP180;10135;50.702;7.276;2022-10-19T12:46:18;100252.00;;;20.40
19948;BMP180;10135;50.702;7.276;2022-10-19T12:48:22;100248.00;;;20.50
19948;BMP180;10135;50.702;7.276;2022-10-19T12:52:50;100242.00;;;20.60
19948;BMP180;10135;50.702;7.276;2022-10-19T12:54:53;100234.00;;;20.60
19948;BMP180;10135;50.702;7.276;2022-10-19T12:56:57;100230.00;;;20.60
19948;BMP180;10135;50.702;7.276;2022-10-19T12:59:00;100227.00;;;20.60
19948;BMP180;10135;50.702;7.276;2022-10-19T13:01:06;100240.00;;;20.60
19948;BMP180;10135;50.702;7.276;2022-10-19T13:03:20;100233.00;;;20.70
19948;BMP180;10135;50.702;7.276;2022-10-19T13:05:25;100231.00;;;20.70
19948;BMP180;10135;50.702;7.276;2022-10-19T13:07:34;100234.00;;;20.70
19948;BMP180;10135;50.702;7.276;2022-10-19T13:09:41;100225.00;;;20.80
19948;BMP180;10135;50.702;7.276;2022-10-19T13:19:03;100210.00;;;20.80
19948;BMP180;10135;50.702;7.276;2022-10-19T13:21:06;100210.00;;;20.80
19948;BMP180;10135;50.702;7.276;2022-10-19T13:27:24;100205.00;;;20.70
19948;BMP180;10135;50.702;7.276;2022-10-19T13:29:47;100200.00;;;20.70
19948;BMP180;10135;50.702;7.276;2022-10-19T13:31:47;100198.00;;;20.70
19948;BMP180;10135;50.702;7.276;2022-10-19T13:33:49;100197.00;;;20.70
19948;BMP180;10135;50.702;7.276;2022-10-19T13:38:18;100197.00;;;20.60
19948;BMP180;10135;50.702;7.276;2022-10-19T13:40:20;100192.00;;;20.70
19948;BMP180;10135;50.702;7.276;2022-10-19T13:42:26;100189.00;;;20.60
19948;BMP180;10135;50.702;7.276;2022-10-19T13:44:31;100181.00;;;20.60
19948;BMP180;10135;50.702;7.276;2022-10-19T14:02:21;100177.00;;;20.40
19948;BMP180;10135;50.702;7.276;2022-10-19T14:04:44;100181.00;;;20.30
19948;BMP180;10135;50.702;7.276;2022-10-19T14:07:15;100175.00;;;20.30
19948;BMP180;10135;50.702;7.276;2022-10-19T14:09:51;100182.00;;;20.30
19948;BMP180;10135;50.702;7.276;2022-10-19T14:12:08;100181.00;;;20.30
19948;BMP180;10135;50.702;7.276;2022-10-19T14:14:22;100182.00;;;20.30
19948;BMP180;10135;50.702;7.276;2022-10-19T14:16:23;100185.00;;;20.30
19948;BMP180;10135;50.702;7.276;2022-10-19T14:18:29;100171.00;;;20.20
19948;BMP180;10135;50.702;7.276;2022-10-19T14:20:37;100178.00;;;20.20
19948;BMP180;10135;50.702;7.276;2022-10-19T14:22:38;100175.00;;;20.20
19948;BMP180;10135;50.702;7.276;2022-10-19T14:24:40;100180.00;;;20.20
19948;BMP180;10135;50.702;7.276;2022-10-19T14:26:40;100173.00;;;20.20
19948;BMP180;10135;50.702;7.276;2022-10-19T14:28:41;100175.00;;;20.20
19948;BMP180;10135;50.702;7.276;2022-10-19T14:30:43;100172.00;;;20.20
19948;BMP180;10135;50.702;7.276;2022-10-19T14:32:43;100175.00;;;20.20
19948;BMP180;10135;50.702;7.276;2022-10-19T14:34:47;100165.00;;;20.10
19948;BMP180;10135;50.702;7.276;2022-10-19T14:36:48;100167.00;;;20.10
19948;BMP180;10135;50.702;7.276;2022-10-19T14:38:54;100158.00;;;20.10
19948;BMP180;10135;50.702;7.276;2022-10-19T14:40:55;100156.00;;;20.10
19948;BMP180;10135;50.702;7.276;2022-10-19T14:42:59;100150.00;;;20.10
19948;BMP180;10135;50.702;7.276;2022-10-19T14:45:02;100146.00;;;20.10
19948;BMP180;10135;50.702;7.276;2022-10-19T14:47:32;100138.00;;;20.00
19948;BMP180;10135;50.702;7.276;2022-10-19T14:49:33;100141.00;;;20.00
19948;BMP180;10135;50.702;7.276;2022-10-19T14:51:47;100137.00;;;19.90
19948;BMP180;10135;50.702;7.276;2022-10-19T14:53:55;100130.00;;;19.90
19948;BMP180;10135;50.702;7.276;2022-10-19T14:58:14;100123.00;;;19.90
19948;BMP180;10135;50.702;7.276;2022-10-19T15:00:20;100118.00;;;19.90
19948;BMP180;10135;50.702;7.276;2022-10-19T15:02:41;100120.00;;;19.80
19948;BMP180;10135;50.702;7.276;2022-10-19T15:04:44;100120.00;;;19.90
19948;BMP180;10135;50.702;7.276;2022-10-19T15:06:45;100117.00;;;19.80
19948;BMP180;10135;50.702;7.276;2022-10-19T15:09:03;100108.00;;;19.80
19948;BMP180;10135;50.702;7.276;2022-10-19T15:11:05;100121.00;;;19.80
19948;BMP180;10135;50.702;7.276;2022-10-19T15:13:06;100112.00;;;19.80
19948;BMP180;10135;50.702;7.276;2022-10-19T15:15:18;100102.00;;;19.70
19948;BMP180;10135;50.702;7.276;2022-10-19T15:17:30;100106.00;;;19.80
19948;BMP180;10135;50.702;7.276;2022-10-19T15:19:39;100110.00;;;19.80
19948;BMP180;10135;50.702;7.276;2022-10-19T15:21:40;100109.00;;;19.80
19948;BMP180;10135;50.702;7.276;2022-10-19T15:23:45;100101.00;;;19.80
19948;BMP180;10135;50.702;7.276;2022-10-19T15:25:46;100100.00;;;19.80
19948;BMP180;10135;50.702;7.276;2022-10-19T15:27:46;100095.00;;;19.80
19948;BMP180;10135;50.702;7.276;2022-10-19T15:29:56;100097.00;;;19.80
19948;BMP180;10135;50.702;7.276;2022-10-19T15:32:24;100099.00;;;19.70
19948;BMP180;10135;50.702;7.276;2022-10-19T15:34:28;100090.00;;;19.70
19948;BMP180;10135;50.702;7.276;2022-10-19T15:36:31;100093.00;;;19.70
19948;BMP180;10135;50.702;7.276;2022-10-19T15:38:32;100096.00;;;19.70
19948;BMP180;10135;50.702;7.276;2022-10-19T15:40:37;100098.00;;;19.70
19948;BMP180;10135;50.702;7.276;2022-10-19T15:42:41;100099.00;;;19.70
19948;BMP180;10135;50.702;7.276;2022-10-19T15:44:43;100104.00;;;19.70
19948;BMP180;10135;50.702;7.276;2022-10-19T15:53:26;100094.00;;;19.60
19948;BMP180;10135;50.702;7.276;2022-10-19T15:55:26;100094.00;;;19.50
19948;BMP180;10135;50.702;7.276;2022-10-19T15:57:35;100095.00;;;19.50
19948;BMP180;10135;50.702;7.276;2022-10-19T15:59:36;100091.00;;;19.50
19948;BMP180;10135;50.702;7.276;2022-10-19T16:01:36;100088.00;;;19.40
19948;BMP180;10135;50.702;7.276;2022-10-19T16:03:37;100086.00;;;19.40
19948;BMP180;10135;50.702;7.276;2022-10-19T16:05:38;100091.00;;;19.40
19948;BMP180;10135;50.702;7.276;2022-10-19T16:07:40;100086.00;;;19.40
19948;BMP180;10135;50.702;7.276;2022-10-19T16:09:41;100082.00;;;19.40
19948;BMP180;10135;50.702;7.276;2022-10-19T16:11:42;100084.00;;;19.30
19948;BMP180;10135;50.702;7.276;2022-10-19T16:13:44;100078.00;;;19.30
19948;BMP180;10135;50.702;7.276;2022-10-19T16:15:44;100084.00;;;19.30
19948;BMP180;10135;50.702;7.276;2022-10-19T16:17:52;100082.00;;;19.20
19948;BMP180;10135;50.702;7.276;2022-10-19T16:19:53;100082.00;;;19.20
19948;BMP180;10135;50.702;7.276;2022-10-19T16:21:53;100077.00;;;19.20
19948;BMP180;10135;50.702;7.276;2022-10-19T16:23:54;100078.00;;;19.10
19948;BMP180;10135;50.702;7.276;2022-10-19T16:25:55;100070.00;;;19.10
19948;BMP180;10135;50.702;7.276;2022-10-19T16:27:55;100069.00;;;19.10
19948;BMP180;10135;50.702;7.276;2022-10-19T16:29:56;100064.00;;;19.00
19948;BMP180;10135;50.702;7.276;2022-10-19T16:31:57;100068.00;;;19.00
19948;BMP180;10135;50.702;7.276;2022-10-19T16:33:57;100059.00;;;19.00
19948;BMP180;10135;50.702;7.276;2022-10-19T16:36:02;100060.00;;;18.90
19948;BMP180;10135;50.702;7.276;2022-10-19T16:38:03;100061.00;;;18.90
19948;BMP180;10135;50.702;7.276;2022-10-19T16:40:05;100058.00;;;18.90
19948;BMP180;10135;50.702;7.276;2022-10-19T16:42:06;100058.00;;;18.80
19948;BMP180;10135;50.702;7.276;2022-10-19T16:44:10;100061.00;;;18.80
19948;BMP180;10135;50.702;7.276;2022-10-19T16:46:11;100058.00;;;18.70
19948;BMP180;10135;50.702;7.276;2022-10-19T16:48:11;100059.00;;;18.70
19948;BMP180;10135;50.702;7.276;2022-10-19T16:50:12;100057.00;;;18.70
19948;BMP180;10135;50.702;7.276;2022-10-19T16:52:13;100058.00;;;18.60
19948;BMP180;10135;50.702;7.276;2022-10-19T16:54:14;100057.00;;;18.60
19948;BMP180;10135;50.702;7.276;2022-10-19T16:56:15;100061.00;;;18.50
19948;BMP180;10135;50.702;7.276;2022-10-19T16:58:15;100051.00;;;18.50
19948;BMP180;10135;50.702;7.276;2022-10-19T17:00:16;100053.00;;;18.50
19948;BMP180;10135;50.702;7.276;2022-10-19T17:02:18;100060.00;;;18.50
19948;BMP180;10135;50.702;7.276;2022-10-19T17:04:19;100054.00;;;18.40
19948;BMP180;10135;50.702;7.276;2022-10-19T17:06:20;100058.00;;;18.40
19948;BMP180;10135;50.702;7.276;2022-10-19T17:08:20;100053.00;;;18.40
19948;BMP180;10135;50.702;7.276;2022-10-19T17:10:21;100053.00;;;18.30
19948;BMP180;10135;50.702;7.276;2022-10-19T17:12:22;100054.00;;;18.30
19948;BMP180;10135;50.702;7.276;2022-10-19T17:14:22;100053.00;;;18.30
19948;BMP180;10135;50.702;7.276;2022-10-19T17:16:26;100053.00;;;18.30
19948;BMP180;10135;50.702;7.276;2022-10-19T17:18:27;100057.00;;;18.20
19948;BMP180;10135;50.702;7.276;2022-10-19T17:20:27;100059.00;;;18.20
19948;BMP180;10135;50.702;7.276;2022-10-19T17:22:28;100053.00;;;18.20
19948;BMP180;10135;50.702;7.276;2022-10-19T17:24:29;100058.00;;;18.10
19948;BMP180;10135;50.702;7.276;2022-10-19T17:26:36;100055.00;;;18.10
19948;BMP180;10135;50.702;7.276;2022-10-19T17:28:39;100059.00;;;18.10
19948;BMP180;10135;50.702;7.276;2022-10-19T17:30:40;100046.00;;;18.10
19948;BMP180;10135;50.702;7.276;2022-10-19T17:32:41;100036.00;;;18.00
19948;BMP180;10135;50.702;7.276;2022-10-19T17:34:42;100039.00;;;18.00
19948;BMP180;10135;50.702;7.276;2022-10-19T17:36:44;100038.00;;;18.00
19948;BMP180;10135;50.702;7.276;2022-10-19T17:38:46;100042.00;;;17.90
19948;BMP180;10135;50.702;7.276;2022-10-19T17:40:47;100050.00;;;17.90
19948;BMP180;10135;50.702;7.276;2022-10-19T17:42:47;100049.00;;;17.90
19948;BMP180;10135;50.702;7.276;2022-10-19T17:44:48;100047.00;;;17.80
19948;BMP180;10135;50.702;7.276;2022-10-19T17:46:48;100046.00;;;17.80
19948;BMP180;10135;50.702;7.276;2022-10-19T17:48:49;100043.00;;;17.80
19948;BMP180;10135;50.702;7.276;2022-10-19T17:51:10;100039.00;;;17.70
19948;BMP180;10135;50.702;7.276;2022-10-19T17:53:11;100044.00;;;17.70
19948;BMP180;10135;50.702;7.276;2022-10-19T17:55:12;100050.00;;;17.70
19948;BMP180;10135;50.702;7.276;2022-10-19T17:57:13;100039.00;;;17.70
19948;BMP180;10135;50.702;7.276;2022-10-19T17:59:14;100041.00;;;17.60
19948;BMP180;10135;50.702;7.276;2022-10-19T18:01:17;100039.00;;;17.60
19948;BMP180;10135;50.702;7.276;2022-10-19T18:03:18;100044.00;;;17.60
19948;BMP180;10135;50.702;7.276;2022-10-19T18:05:18;100040.00;;;17.60
19948;BMP180;10135;50.702;7.276;2022-10-19T18:07:19;100043.00;;;17.50
19948;BMP180;10135;50.702;7.276;2022-10-19T18:09:21;100042.00;;;17.50
19948;BMP180;10135;50.702;7.276;2022-10-19T18:11:24;100035.00;;;17.50
19948;BMP180;10135;50.702;7.276;2022-10-19T18:13:25;100031.00;;;17.40
19948;BMP180;10135;50.702;7.276;2022-10-19T18:15:26;100030.00;;;17.40
19948;BMP180;10135;50.702;7.276;2022-10-19T18:17:27;100038.00;;;17.40
19948;BMP180;10135;50.702;7.276;2022-10-19T18:19:27;100038.00;;;17.30
19948;BMP180;10135;50.702;7.276;2022-10-19T18:21:33;100036.00;;;17.30
19948;BMP180;10135;50.702;7.276;2022-10-19T18:23:34;100032.00;;;17.30
19948;BMP180;10135;50.702;7.276;2022-10-19T18:25:38;100019.00;;;17.30
19948;BMP180;10135;50.702;7.276;2022-10-19T18:27:39;100013.00;;;17.30
19948;BMP180;10135;50.702;7.276;2022-10-19T18:29:39;100018.00;;;17.20
19948;BMP180;10135;50.702;7.276;2022-10-19T18:31:40;100019.00;;;17.20
19948;BMP180;10135;50.702;7.276;2022-10-19T18:33:41;100014.00;;;17.20
19948;BMP180;10135;50.702;7.276;2022-10-19T18:35:42;100008.00;;;17.20
19948;BMP180;10135;50.702;7.276;2022-10-19T18:37:43;100012.00;;;17.20
19948;BMP180;10135;50.702;7.276;2022-10-19T18:39:43;100017.00;;;17.20
19948;BMP180;10135;50.702;7.276;2022-10-19T18:41:44;100012.00;;;17.10
19948;BMP180;10135;50.702;7.276;2022-10-19T18:44:09;100006.00;;;17.10
19948;BMP180;10135;50.702;7.276;2022-10-19T18:46:10;100006.00;;;17.10
19948;BMP180;10135;50.702;7.276;2022-10-19T18:48:11;100005.00;;;17.10